sensor_id;sensor_type;location;lat;lon;timestamp;P1;durP1;ratioP1;P2;durP2;ratioP2
22415;SDS011;12204;50.600;4.608;2022-09-24T00:06:33;6.88;;;2.17;;
22415;SDS011;12204;50.600;4.608;2022-09-24T00:11:42;5.13;;;1.80;;
22415;SDS011;12204;50.600;4.608;2022-09-24T00:16:46;5.65;;;2.00;;
22415;SDS011;12204;50.600;4.608;2022-09-24T00:21:50;5.05;;;1.90;;
22415;SDS011;12204;50.600;4.608;2022-09-24T00:26:55;6.47;;;2.08;;
22415;SDS011;12204;50.600;4.608;2022-09-24T00:31:58;5.05;;;2.15;;
22415;SDS011;12204;50.600;4.608;2022-09-24T00:37:03;6.32;;;2.00;;
22415;SDS011;12204;50.600;4.608;2022-09-24T00:42:08;5.93;;;2.00;;
22415;SDS011;12204;50.600;4.608;2022-09-24T00:47:12;4.40;;;1.73;;
22415;SDS011;12204;50.600;4.608;2022-09-24T00:52:29;5.47;;;2.10;;
22415;SDS011;12204;50.600;4.608;2022-09-24T00:57:34;6.20;;;2.20;;
22415;SDS011;12204;50.600;4.608;2022-09-24T01:02:40;4.37;;;2.00;;
22415;SDS011;12204;50.600;4.608;2022-09-24T01:07:50;5.10;;;1.98;;
22415;SDS011;12204;50.600;4.608;2022-09-24T01:12:56;6.20;;;2.22;;
22415;SDS011;12204;50.600;4.608;2022-09-24T01:18:12;5.13;;;2.30;;
22415;SDS011;12204;50.600;4.608;2022-09-24T01:23:40;4.97;;;2.03;;
22415;SDS011;12204;50.600;4.608;2022-09-24T01:34:42;4.90;;;2.13;;
22415;SDS011;12204;50.600;4.608;2022-09-24T01:39:52;6.88;;;2.20;;
22415;SDS011;12204;50.600;4.608;2022-09-24T01:44:59;5.55;;;2.20;;
22415;SDS011;12204;50.600;4.608;2022-09-24T01:50:05;4.13;;;2.00;;
22415;SDS011;12204;50.600;4.608;2022-09-24T01:55:13;5.40;;;2.00;;
22415;SDS011;12204;50.600;4.608;2022-09-24T02:00:22;7.13;;;2.22;;
22415;SDS011;12204;50.600;4.608;2022-09-24T02:05:28;4.32;;;2.08;;
22415;SDS011;12204;50.600;4.608;2022-09-24T02:10:37;5.10;;;2.20;;
22415;SDS011;12204;50.600;4.608;2022-09-24T02:15:49;4.25;;;2.05;;
22415;SDS011;12204;50.600;4.608;2022-09-24T02:20:58;5.32;;;2.00;;
22415;SDS011;12204;50.600;4.608;2022-09-24T02:26:10;5.60;;;2.10;;
22415;SDS011;12204;50.600;4.608;2022-09-24T02:31:15;5.20;;;2.33;;
22415;SDS011;12204;50.600;4.608;2022-09-24T02:36:28;6.55;;;2.25;;
22415;SDS011;12204;50.600;4.608;2022-09-24T02:41:32;4.15;;;1.88;;
22415;SDS011;12204;50.600;4.608;2022-09-24T02:46:38;5.75;;;2.10;;
22415;SDS011;12204;50.600;4.608;2022-09-24T02:51:43;4.82;;;2.15;;
22415;SDS011;12204;50.600;4.608;2022-09-24T02:56:47;6.28;;;2.08;;
22415;SDS011;12204;50.600;4.608;2022-09-24T03:01:52;7.10;;;2.03;;
22415;SDS011;12204;50.600;4.608;2022-09-24T03:06:56;5.07;;;2.15;;
22415;SDS011;12204;50.600;4.608;2022-09-24T03:12:01;8.77;;;2.33;;
22415;SDS011;12204;50.600;4.608;2022-09-24T03:17:06;4.88;;;2.20;;
22415;SDS011;12204;50.600;4.608;2022-09-24T03:22:10;6.00;;;2.40;;
22415;SDS011;12204;50.600;4.608;2022-09-24T03:27:14;5.03;;;2.03;;
22415;SDS011;12204;50.600;4.608;2022-09-24T03:32:19;5.72;;;2.40;;
22415;SDS011;12204;50.600;4.608;2022-09-24T03:37:22;8.88;;;2.40;;
22415;SDS011;12204;50.600;4.608;2022-09-24T03:42:26;5.85;;;2.22;;
22415;SDS011;12204;50.600;4.608;2022-09-24T03:47:33;5.93;;;2.40;;
22415;SDS011;12204;50.600;4.608;2022-09-24T03:52:37;5.55;;;2.30;;
22415;SDS011;12204;50.600;4.608;2022-09-24T03:57:41;5.55;;;2.20;;
22415;SDS011;12204;50.600;4.608;2022-09-24T04:02:46;5.93;;;2.10;;
22415;SDS011;12204;50.600;4.608;2022-09-24T04:07:50;6.30;;;2.40;;
22415;SDS011;12204;50.600;4.608;2022-09-24T04:12:54;6.00;;;2.28;;
22415;SDS011;12204;50.600;4.608;2022-09-24T04:17:59;5.00;;;2.42;;
22415;SDS011;12204;50.600;4.608;2022-09-24T04:23:02;5.43;;;2.17;;
22415;SDS011;12204;50.600;4.608;2022-09-24T04:28:07;5.85;;;2.28;;
22415;SDS011;12204;50.600;4.608;2022-09-24T04:33:13;4.38;;;2.20;;
22415;SDS011;12204;50.600;4.608;2022-09-24T04:38:17;6.97;;;2.10;;
22415;SDS011;12204;50.600;4.608;2022-09-24T04:43:21;5.30;;;2.40;;
22415;SDS011;12204;50.600;4.608;2022-09-24T04:48:26;5.55;;;2.63;;
22415;SDS011;12204;50.600;4.608;2022-09-24T04:53:31;5.55;;;2.40;;
22415;SDS011;12204;50.600;4.608;2022-09-24T04:58:36;6.93;;;2.80;;
22415;SDS011;12204;50.600;4.608;2022-09-24T05:03:41;5.20;;;2.30;;
22415;SDS011;12204;50.600;4.608;2022-09-24T05:08:47;6.37;;;2.60;;
22415;SDS011;12204;50.600;4.608;2022-09-24T05:13:50;7.57;;;2.50;;
22415;SDS011;12204;50.600;4.608;2022-09-24T05:18:56;6.13;;;2.40;;
22415;SDS011;12204;50.600;4.608;2022-09-24T05:23:59;5.22;;;2.38;;
22415;SDS011;12204;50.600;4.608;2022-09-24T05:29:04;5.70;;;2.53;;
22415;SDS011;12204;50.600;4.608;2022-09-24T05:34:09;5.28;;;2.53;;
22415;SDS011;12204;50.600;4.608;2022-09-24T05:39:14;5.32;;;2.35;;
22415;SDS011;12204;50.600;4.608;2022-09-24T05:44:18;4.85;;;2.05;;
22415;SDS011;12204;50.600;4.608;2022-09-24T05:49:23;6.43;;;2.58;;
22415;SDS011;12204;50.600;4.608;2022-09-24T05:54:27;5.53;;;2.35;;
22415;SDS011;12204;50.600;4.608;2022-09-24T05:59:30;6.25;;;2.50;;
22415;SDS011;12204;50.600;4.608;2022-09-24T06:04:35;6.00;;;2.65;;
22415;SDS011;12204;50.600;4.608;2022-09-24T06:09:39;8.38;;;2.35;;
22415;SDS011;12204;50.600;4.608;2022-09-24T06:14:42;8.65;;;2.60;;
22415;SDS011;12204;50.600;4.608;2022-09-24T06:19:47;5.43;;;2.33;;
22415;SDS011;12204;50.600;4.608;2022-09-24T06:24:51;8.98;;;2.50;;
22415;SDS011;12204;50.600;4.608;2022-09-24T06:29:54;9.75;;;2.47;;
22415;SDS011;12204;50.600;4.608;2022-09-24T06:34:59;13.73;;;2.80;;
22415;SDS011;12204;50.600;4.608;2022-09-24T06:40:03;8.98;;;2.40;;
22415;SDS011;12204;50.600;4.608;2022-09-24T06:45:10;11.13;;;2.50;;
22415;SDS011;12204;50.600;4.608;2022-09-24T06:50:16;8.23;;;2.40;;
22415;SDS011;12204;50.600;4.608;2022-09-24T06:55:19;7.80;;;2.60;;
22415;SDS011;12204;50.600;4.608;2022-09-24T07:00:24;11.35;;;2.75;;
22415;SDS011;12204;50.600;4.608;2022-09-24T07:05:29;8.98;;;2.40;;
22415;SDS011;12204;50.600;4.608;2022-09-24T07:10:32;8.32;;;2.72;;
22415;SDS011;12204;50.600;4.608;2022-09-24T07:15:36;7.72;;;2.50;;
22415;SDS011;12204;50.600;4.608;2022-09-24T07:20:41;14.25;;;2.95;;
22415;SDS011;12204;50.600;4.608;2022-09-24T07:25:45;14.05;;;3.95;;
22415;SDS011;12204;50.600;4.608;2022-09-24T07:30:54;12.80;;;4.20;;
22415;SDS011;12204;50.600;4.608;2022-09-24T07:36:03;14.00;;;4.10;;
22415;SDS011;12204;50.600;4.608;2022-09-24T07:41:08;12.25;;;4.18;;
22415;SDS011;12204;50.600;4.608;2022-09-24T07:46:12;13.38;;;4.45;;
22415;SDS011;12204;50.600;4.608;2022-09-24T07:51:17;14.10;;;4.80;;
22415;SDS011;12204;50.600;4.608;2022-09-24T07:56:21;9.38;;;4.93;;
22415;SDS011;12204;50.600;4.608;2022-09-24T08:01:26;12.40;;;4.75;;
22415;SDS011;12204;50.600;4.608;2022-09-24T08:06:32;9.23;;;4.70;;
22415;SDS011;12204;50.600;4.608;2022-09-24T08:11:40;11.05;;;4.95;;
22415;SDS011;12204;50.600;4.608;2022-09-24T08:16:44;11.13;;;5.40;;
22415;SDS011;12204;50.600;4.608;2022-09-24T08:21:49;9.95;;;5.43;;
22415;SDS011;12204;50.600;4.608;2022-09-24T08:26:52;10.13;;;5.13;;
22415;SDS011;12204;50.600;4.608;2022-09-24T08:31:56;9.38;;;4.97;;
22415;SDS011;12204;50.600;4.608;2022-09-24T08:37:00;8.40;;;4.28;;
22415;SDS011;12204;50.600;4.608;2022-09-24T08:42:05;13.38;;;4.68;;
22415;SDS011;12204;50.600;4.608;2022-09-24T08:47:17;8.30;;;4.10;;
22415;SDS011;12204;50.600;4.608;2022-09-24T08:52:43;7.10;;;3.70;;
22415;SDS011;12204;50.600;4.608;2022-09-24T08:58:27;7.25;;;3.50;;
22415;SDS011;12204;50.600;4.608;2022-09-24T09:03:45;7.25;;;3.80;;
22415;SDS011;12204;50.600;4.608;2022-09-24T09:08:59;10.85;;;3.90;;
22415;SDS011;12204;50.600;4.608;2022-09-24T09:14:11;6.75;;;3.50;;
22415;SDS011;12204;50.600;4.608;2022-09-24T09:19:22;7.40;;;3.55;;
22415;SDS011;12204;50.600;4.608;2022-09-24T09:24:34;7.10;;;3.75;;
22415;SDS011;12204;50.600;4.608;2022-09-24T09:29:47;9.10;;;3.28;;
22415;SDS011;12204;50.600;4.608;2022-09-24T09:35:02;7.45;;;3.80;;
22415;SDS011;12204;50.600;4.608;2022-09-24T09:40:23;8.75;;;3.40;;
22415;SDS011;12204;50.600;4.608;2022-09-24T09:45:36;6.93;;;3.60;;
22415;SDS011;12204;50.600;4.608;2022-09-24T09:50:48;7.20;;;3.03;;
22415;SDS011;12204;50.600;4.608;2022-09-24T09:55:59;8.00;;;3.20;;
22415;SDS011;12204;50.600;4.608;2022-09-24T10:01:08;6.38;;;3.10;;
22415;SDS011;12204;50.600;4.608;2022-09-24T10:06:21;8.48;;;3.38;;
22415;SDS011;12204;50.600;4.608;2022-09-24T10:11:29;6.90;;;3.40;;
22415;SDS011;12204;50.600;4.608;2022-09-24T10:16:34;6.15;;;3.13;;
22415;SDS011;12204;50.600;4.608;2022-09-24T10:21:41;6.47;;;2.90;;
22415;SDS011;12204;50.600;4.608;2022-09-24T10:26:46;7.45;;;3.20;;
22415;SDS011;12204;50.600;4.608;2022-09-24T10:31:51;6.80;;;3.15;;
22415;SDS011;12204;50.600;4.608;2022-09-24T10:36:58;6.85;;;3.03;;
22415;SDS011;12204;50.600;4.608;2022-09-24T10:42:23;7.97;;;3.40;;
22415;SDS011;12204;50.600;4.608;2022-09-24T10:47:32;11.15;;;3.55;;
22415;SDS011;12204;50.600;4.608;2022-09-24T10:52:45;7.72;;;3.47;;
22415;SDS011;12204;50.600;4.608;2022-09-24T10:57:58;9.15;;;3.97;;
22415;SDS011;12204;50.600;4.608;2022-09-24T11:09:10;9.20;;;4.28;;
22415;SDS011;12204;50.600;4.608;2022-09-24T11:14:43;10.90;;;4.45;;
22415;SDS011;12204;50.600;4.608;2022-09-24T11:20:19;9.88;;;4.72;;
22415;SDS011;12204;50.600;4.608;2022-09-24T11:25:34;12.85;;;5.53;;
22415;SDS011;12204;50.600;4.608;2022-09-24T11:30:52;11.98;;;5.47;;
22415;SDS011;12204;50.600;4.608;2022-09-24T11:36:12;11.30;;;5.43;;
22415;SDS011;12204;50.600;4.608;2022-09-24T11:41:36;13.05;;;5.18;;
22415;SDS011;12204;50.600;4.608;2022-09-24T11:46:55;13.20;;;5.72;;
22415;SDS011;12204;50.600;4.608;2022-09-24T11:52:19;11.27;;;5.60;;
22415;SDS011;12204;50.600;4.608;2022-09-24T11:57:33;12.30;;;5.25;;
22415;SDS011;12204;50.600;4.608;2022-09-24T12:02:45;12.75;;;5.45;;
22415;SDS011;12204;50.600;4.608;2022-09-24T12:07:52;11.57;;;5.30;;
22415;SDS011;12204;50.600;4.608;2022-09-24T12:13:04;11.30;;;5.60;;
22415;SDS011;12204;50.600;4.608;2022-09-24T12:18:21;11.90;;;5.50;;
22415;SDS011;12204;50.600;4.608;2022-09-24T12:23:29;13.20;;;5.90;;
22415;SDS011;12204;50.600;4.608;2022-09-24T12:28:41;10.90;;;5.38;;
22415;SDS011;12204;50.600;4.608;2022-09-24T12:34:17;11.90;;;5.20;;
22415;SDS011;12204;50.600;4.608;2022-09-24T12:39:30;11.13;;;5.60;;
22415;SDS011;12204;50.600;4.608;2022-09-24T12:44:41;12.88;;;5.72;;
22415;SDS011;12204;50.600;4.608;2022-09-24T12:49:53;13.63;;;5.90;;
22415;SDS011;12204;50.600;4.608;2022-09-24T12:55:00;12.82;;;5.65;;
22415;SDS011;12204;50.600;4.608;2022-09-24T13:05:46;12.60;;;5.67;;
22415;SDS011;12204;50.600;4.608;2022-09-24T13:16:01;12.85;;;5.15;;
22415;SDS011;12204;50.600;4.608;2022-09-24T13:21:16;12.10;;;5.57;;
22415;SDS011;12204;50.600;4.608;2022-09-24T13:26:25;10.27;;;5.30;;
22415;SDS011;12204;50.600;4.608;2022-09-24T13:31:39;11.30;;;5.32;;
22415;SDS011;12204;50.600;4.608;2022-09-24T13:36:53;10.68;;;5.28;;
22415;SDS011;12204;50.600;4.608;2022-09-24T13:42:03;11.88;;;5.28;;
22415;SDS011;12204;50.600;4.608;2022-09-24T13:47:26;11.05;;;5.40;;
22415;SDS011;12204;50.600;4.608;2022-09-24T13:52:38;12.40;;;5.25;;
22415;SDS011;12204;50.600;4.608;2022-09-24T13:57:47;10.88;;;5.47;;
22415;SDS011;12204;50.600;4.608;2022-09-24T14:02:52;10.82;;;5.10;;
22415;SDS011;12204;50.600;4.608;2022-09-24T14:08:05;9.65;;;5.10;;
22415;SDS011;12204;50.600;4.608;2022-09-24T14:13:14;8.82;;;4.75;;
22415;SDS011;12204;50.600;4.608;2022-09-24T14:18:22;9.65;;;4.90;;
22415;SDS011;12204;50.600;4.608;2022-09-24T14:23:29;10.52;;;5.25;;
22415;SDS011;12204;50.600;4.608;2022-09-24T14:28:40;10.02;;;5.30;;
22415;SDS011;12204;50.600;4.608;2022-09-24T14:33:44;10.05;;;5.20;;
22415;SDS011;12204;50.600;4.608;2022-09-24T14:38:50;10.93;;;5.22;;
22415;SDS011;12204;50.600;4.608;2022-09-24T14:44:02;12.40;;;5.70;;
22415;SDS011;12204;50.600;4.608;2022-09-24T14:49:15;11.32;;;5.68;;
22415;SDS011;12204;50.600;4.608;2022-09-24T14:54:27;11.60;;;6.22;;
22415;SDS011;12204;50.600;4.608;2022-09-24T14:59:35;12.18;;;6.88;;
22415;SDS011;12204;50.600;4.608;2022-09-24T15:04:43;11.93;;;6.35;;
22415;SDS011;12204;50.600;4.608;2022-09-24T15:09:51;13.93;;;7.07;;
22415;SDS011;12204;50.600;4.608;2022-09-24T15:14:59;14.38;;;7.25;;
22415;SDS011;12204;50.600;4.608;2022-09-24T15:20:08;12.55;;;6.43;;
22415;SDS011;12204;50.600;4.608;2022-09-24T15:25:15;39.38;;;8.43;;
22415;SDS011;12204;50.600;4.608;2022-09-24T15:30:19;31.70;;;8.35;;
22415;SDS011;12204;50.600;4.608;2022-09-24T15:35:24;32.60;;;8.68;;
22415;SDS011;12204;50.600;4.608;2022-09-24T15:40:28;31.25;;;8.27;;
22415;SDS011;12204;50.600;4.608;2022-09-24T15:45:37;31.98;;;9.20;;
22415;SDS011;12204;50.600;4.608;2022-09-24T15:50:40;24.95;;;8.52;;
22415;SDS011;12204;50.600;4.608;2022-09-24T15:55:50;24.10;;;7.75;;
22415;SDS011;12204;50.600;4.608;2022-09-24T16:00:56;21.23;;;7.93;;
22415;SDS011;12204;50.600;4.608;2022-09-24T16:06:00;27.42;;;7.60;;
22415;SDS011;12204;50.600;4.608;2022-09-24T16:11:05;21.85;;;6.80;;
22415;SDS011;12204;50.600;4.608;2022-09-24T16:16:09;20.95;;;7.28;;
22415;SDS011;12204;50.600;4.608;2022-09-24T16:21:13;32.35;;;6.18;;
22415;SDS011;12204;50.600;4.608;2022-09-24T16:26:19;16.42;;;6.28;;
22415;SDS011;12204;50.600;4.608;2022-09-24T16:31:22;19.13;;;6.20;;
22415;SDS011;12204;50.600;4.608;2022-09-24T16:36:26;18.02;;;6.07;;
22415;SDS011;12204;50.600;4.608;2022-09-24T16:41:31;21.13;;;6.00;;
22415;SDS011;12204;50.600;4.608;2022-09-24T16:46:37;17.47;;;6.73;;
22415;SDS011;12204;50.600;4.608;2022-09-24T16:51:41;16.00;;;5.95;;
22415;SDS011;12204;50.600;4.608;2022-09-24T16:56:48;16.02;;;6.25;;
22415;SDS011;12204;50.600;4.608;2022-09-24T17:01:52;13.83;;;6.10;;
22415;SDS011;12204;50.600;4.608;2022-09-24T17:06:56;12.07;;;5.60;;
22415;SDS011;12204;50.600;4.608;2022-09-24T17:12:02;14.13;;;5.60;;
22415;SDS011;12204;50.600;4.608;2022-09-24T17:17:06;13.90;;;5.50;;
22415;SDS011;12204;50.600;4.608;2022-09-24T17:22:10;13.98;;;5.40;;
22415;SDS011;12204;50.600;4.608;2022-09-24T17:27:15;13.05;;;5.38;;
22415;SDS011;12204;50.600;4.608;2022-09-24T17:32:19;13.45;;;4.95;;
22415;SDS011;12204;50.600;4.608;2022-09-24T17:37:23;13.20;;;5.50;;
22415;SDS011;12204;50.600;4.608;2022-09-24T17:42:29;10.45;;;5.10;;
22415;SDS011;12204;50.600;4.608;2022-09-24T17:47:33;12.70;;;4.82;;
22415;SDS011;12204;50.600;4.608;2022-09-24T17:52:51;11.63;;;5.18;;
22415;SDS011;12204;50.600;4.608;2022-09-24T17:57:56;9.55;;;4.88;;
22415;SDS011;12204;50.600;4.608;2022-09-24T18:03:00;10.38;;;4.95;;
22415;SDS011;12204;50.600;4.608;2022-09-24T18:08:04;10.98;;;5.10;;
22415;SDS011;12204;50.600;4.608;2022-09-24T18:13:10;9.70;;;4.80;;
22415;SDS011;12204;50.600;4.608;2022-09-24T18:18:14;11.00;;;4.70;;
22415;SDS011;12204;50.600;4.608;2022-09-24T18:23:19;8.63;;;4.38;;
22415;SDS011;12204;50.600;4.608;2022-09-24T18:28:24;8.48;;;4.38;;
22415;SDS011;12204;50.600;4.608;2022-09-24T18:33:28;8.38;;;4.50;;
22415;SDS011;12204;50.600;4.608;2022-09-24T18:38:32;9.27;;;4.18;;
22415;SDS011;12204;50.600;4.608;2022-09-24T18:43:38;9.30;;;4.15;;
22415;SDS011;12204;50.600;4.608;2022-09-24T18:48:44;10.63;;;4.43;;
22415;SDS011;12204;50.600;4.608;2022-09-24T18:53:52;8.85;;;4.20;;
22415;SDS011;12204;50.600;4.608;2022-09-24T18:59:00;9.43;;;4.37;;
22415;SDS011;12204;50.600;4.608;2022-09-24T19:04:11;8.48;;;4.20;;
22415;SDS011;12204;50.600;4.608;2022-09-24T19:09:16;9.90;;;4.10;;
22415;SDS011;12204;50.600;4.608;2022-09-24T19:14:23;8.50;;;4.03;;
22415;SDS011;12204;50.600;4.608;2022-09-24T19:19:27;9.25;;;4.25;;
22415;SDS011;12204;50.600;4.608;2022-09-24T19:24:31;7.25;;;3.95;;
22415;SDS011;12204;50.600;4.608;2022-09-24T19:29:36;8.50;;;4.05;;
22415;SDS011;12204;50.600;4.608;2022-09-24T19:34:43;8.95;;;4.00;;
22415;SDS011;12204;50.600;4.608;2022-09-24T19:39:47;8.50;;;3.90;;
22415;SDS011;12204;50.600;4.608;2022-09-24T19:44:53;7.72;;;4.13;;
22415;SDS011;12204;50.600;4.608;2022-09-24T19:49:57;8.20;;;4.10;;
22415;SDS011;12204;50.600;4.608;2022-09-24T19:55:01;7.72;;;3.70;;
22415;SDS011;12204;50.600;4.608;2022-09-24T20:00:07;8.88;;;3.90;;
22415;SDS011;12204;50.600;4.608;2022-09-24T20:05:12;8.10;;;3.87;;
22415;SDS011;12204;50.600;4.608;2022-09-24T20:10:16;8.65;;;4.07;;
22415;SDS011;12204;50.600;4.608;2022-09-24T20:15:22;7.25;;;3.55;;
22415;SDS011;12204;50.600;4.608;2022-09-24T20:20:26;6.93;;;3.80;;
22415;SDS011;12204;50.600;4.608;2022-09-24T20:25:29;8.75;;;3.90;;
22415;SDS011;12204;50.600;4.608;2022-09-24T20:30:52;7.88;;;3.63;;
22415;SDS011;12204;50.600;4.608;2022-09-24T20:35:59;7.97;;;3.65;;
22415;SDS011;12204;50.600;4.608;2022-09-24T20:46:11;8.18;;;3.75;;
22415;SDS011;12204;50.600;4.608;2022-09-24T20:51:19;6.57;;;3.30;;
22415;SDS011;12204;50.600;4.608;2022-09-24T20:56:23;6.75;;;3.40;;
22415;SDS011;12204;50.600;4.608;2022-09-24T21:06:36;6.25;;;3.20;;
22415;SDS011;12204;50.600;4.608;2022-09-24T21:11:39;7.60;;;3.40;;
22415;SDS011;12204;50.600;4.608;2022-09-24T21:16:45;11.85;;;3.60;;
22415;SDS011;12204;50.600;4.608;2022-09-24T21:21:49;11.67;;;3.83;;
22415;SDS011;12204;50.600;4.608;2022-09-24T21:26:55;12.63;;;3.83;;
22415;SDS011;12204;50.600;4.608;2022-09-24T21:32:02;8.07;;;3.37;;
22415;SDS011;12204;50.600;4.608;2022-09-24T21:37:06;10.85;;;3.63;;
22415;SDS011;12204;50.600;4.608;2022-09-24T21:42:09;8.00;;;3.70;;
22415;SDS011;12204;50.600;4.608;2022-09-24T21:47:16;11.20;;;3.80;;
22415;SDS011;12204;50.600;4.608;2022-09-24T21:52:19;9.73;;;3.65;;
22415;SDS011;12204;50.600;4.608;2022-09-24T21:57:23;9.48;;;3.53;;
22415;SDS011;12204;50.600;4.608;2022-09-24T22:02:28;8.05;;;3.40;;
22415;SDS011;12204;50.600;4.608;2022-09-24T22:07:32;10.15;;;3.80;;
22415;SDS011;12204;50.600;4.608;2022-09-24T22:12:36;7.13;;;3.60;;
22415;SDS011;12204;50.600;4.608;2022-09-24T22:17:41;6.72;;;3.53;;
22415;SDS011;12204;50.600;4.608;2022-09-24T22:22:45;8.35;;;3.47;;
22415;SDS011;12204;50.600;4.608;2022-09-24T22:27:49;8.32;;;3.50;;
22415;SDS011;12204;50.600;4.608;2022-09-24T22:32:54;7.47;;;3.70;;
22415;SDS011;12204;50.600;4.608;2022-09-24T22:37:57;8.82;;;3.70;;
22415;SDS011;12204;50.600;4.608;2022-09-24T22:43:01;9.55;;;3.38;;
22415;SDS011;12204;50.600;4.608;2022-09-24T22:48:06;7.32;;;3.80;;
22415;SDS011;12204;50.600;4.608;2022-09-24T22:53:10;9.15;;;3.50;;
22415;SDS011;12204;50.600;4.608;2022-09-24T22:58:13;8.73;;;3.80;;
22415;SDS011;12204;50.600;4.608;2022-09-24T23:03:18;8.15;;;3.60;;
22415;SDS011;12204;50.600;4.608;2022-09-24T23:08:22;9.43;;;3.90;;
22415;SDS011;12204;50.600;4.608;2022-09-24T23:13:26;9.48;;;3.75;;
22415;SDS011;12204;50.600;4.608;2022-09-24T23:18:31;10.38;;;4.10;;
22415;SDS011;12204;50.600;4.608;2022-09-24T23:23:34;10.57;;;3.70;;
22415;SDS011;12204;50.600;4.608;2022-09-24T23:28:39;11.48;;;4.15;;
22415;SDS011;12204;50.600;4.608;2022-09-24T23:33:44;7.55;;;3.63;;
22415;SDS011;12204;50.600;4.608;2022-09-24T23:38:48;7.82;;;3.65;;
22415;SDS011;12204;50.600;4.608;2022-09-24T23:43:53;10.88;;;3.60;;
22415;SDS011;12204;50.600;4.608;2022-09-24T23:48:58;9.23;;;3.97;;
22415;SDS011;12204;50.600;4.608;2022-09-24T23:54:01;10.50;;;3.95;;
22415;SDS011;12204;50.600;4.608;2022-09-24T23:59:05;10.45;;;4.07;;
